Time;durP1;ratioP1;P1;durP2;ratioP2;P2;SDS_P1;SDS_P2;PMS_P1;PMS_P2;Temp;Humidity;BMP_temperature;BMP_pressure;BME280_temperature;BME280_humidity;BME280_pressure;Samples;Min_cycle;Max_cycle;Signal;HPM_P1;HPM_P2
2022/04/16 00:00:11;;;;;;;5.93;2.65;;;;;;;;;;5026040;28;20086;-76
2022/04/16 00:02:38;;;;;;;5.30;2.67;;;;;;;;;;5008725;28;20076;-76
2022/04/16 00:05:05;;;;;;;5.00;2.20;;;;;;;;;;5026351;28;20050;-76
2022/04/16 00:07:32;;;;;;;4.90;2.20;;;;;;;;;;5026045;28;20054;-76
2022/04/16 00:09:59;;;;;;;6.95;2.55;;;;;;;;;;5026404;28;20049;-76
2022/04/16 00:12:27;;;;;;;5.43;2.50;;;;;;;;;;5026638;28;20049;-76
2022/04/16 00:14:55;;;;;;;4.90;2.30;;;;;;;;;;5026354;28;20055;-76
2022/04/16 00:17:23;;;;;;;5.72;2.50;;;;;;;;;;5026982;28;20081;-76
2022/04/16 00:19:49;;;;;;;5.53;2.38;;;;;;;;;;5026522;28;20505;-76
2022/04/16 00:22:16;;;;;;;;;;;;;;;;;;5027555;28;20422;-76
2022/04/16 00:24:43;;;;;;;5.35;2.47;;;;;;;;;;5009045;28;19933;-76
2022/04/16 00:27:10;;;;;;;4.72;2.35;;;;;;;;;;5026352;28;20050;-76
2022/04/16 00:29:39;;;;;;;6.00;2.63;;;;;;;;;;5026364;28;20417;-76
2022/04/16 00:32:07;;;;;;;5.13;2.42;;;;;;;;;;5026497;28;20061;-76
2022/04/16 00:34:35;;;;;;;6.18;2.50;;;;;;;;;;5026178;28;20050;-76
2022/04/16 00:37:02;;;;;;;4.80;2.33;;;;;;;;;;5024892;28;20041;-77
2022/04/16 00:39:31;;;;;;;5.63;2.40;;;;;;;;;;5025317;28;20145;-76
2022/04/16 00:41:57;;;;;;;3.85;1.90;;;;;;;;;;5026603;28;20060;-76
2022/04/16 00:44:25;;;;;;;4.78;2.30;;;;;;;;;;5026096;28;20057;-76
2022/04/16 00:46:53;;;;;;;4.28;2.13;;;;;;;;;;5026300;28;20050;-76
2022/04/16 00:49:20;;;;;;;4.45;2.30;;;;;;;;;;5026468;28;20050;-76
2022/04/16 00:51:47;;;;;;;4.93;2.20;;;;;;;;;;5025589;28;20453;-76
2022/04/16 00:54:13;;;;;;;4.55;2.35;;;;;;;;;;5024841;28;20073;-76
2022/04/16 00:56:49;;;;;;;4.45;2.15;;;;;;;;;;5025361;28;20042;-76
2022/04/16 00:59:17;;;;;;;4.90;2.10;;;;;;;;;;5025815;28;20088;-76
2022/04/16 01:01:44;;;;;;;5.45;2.30;;;;;;;;;;5025293;28;20076;-76
2022/04/16 01:04:11;;;;;;;5.07;2.50;;;;;;;;;;5325309;22;20073;-75
2022/04/16 01:06:38;;;;;;;5.72;2.55;;;;;;;;;;5065558;28;20150;-75
2022/04/16 01:09:05;;;;;;;4.72;2.28;;;;;;;;;;5064312;28;20052;-75
2022/04/16 01:11:32;;;;;;;5.80;2.30;;;;;;;;;;5064478;28;20135;-75
2022/04/16 01:14:00;;;;;;;4.10;2.00;;;;;;;;;;5051094;28;20077;-75
2022/04/16 01:16:26;;;;;;;4.35;2.00;;;;;;;;;;5044534;28;20055;-75
2022/04/16 01:18:53;;;;;;;4.55;2.17;;;;;;;;;;5044839;28;20084;-75
2022/04/16 01:21:21;;;;;;;4.28;2.10;;;;;;;;;;5044118;28;20520;-75
2022/04/16 01:23:50;;;;;;;4.55;2.13;;;;;;;;;;5044664;28;20041;-75
2022/04/16 01:26:17;;;;;;;6.43;2.28;;;;;;;;;;5044613;28;20072;-75
2022/04/16 01:28:44;;;;;;;3.97;2.00;;;;;;;;;;5043973;28;20059;-75
2022/04/16 01:31:14;;;;;;;3.80;2.20;;;;;;;;;;5044932;28;20079;-75
2022/04/16 01:33:44;;;;;;;4.95;2.25;;;;;;;;;;5043923;28;20057;-76
2022/04/16 01:36:14;;;;;;;5.75;2.30;;;;;;;;;;5044679;28;20109;-75
2022/04/16 01:38:41;;;;;;;4.55;2.38;;;;;;;;;;5044101;28;20489;-75
2022/04/16 01:41:13;;;;;;;5.20;2.53;;;;;;;;;;5044559;28;20057;-75
2022/04/16 01:43:50;;;;;;;5.82;2.40;;;;;;;;;;5043405;28;20066;-75
2022/04/16 01:46:20;;;;;;;4.22;2.08;;;;;;;;;;5044556;28;20053;-75
2022/04/16 01:48:50;;;;;;;4.45;2.00;;;;;;;;;;5044147;28;20050;-75
2022/04/16 01:51:18;;;;;;;5.53;2.15;;;;;;;;;;5044601;28;20060;-75
2022/04/16 01:53:45;;;;;;;4.88;2.20;;;;;;;;;;5044521;28;20111;-75
2022/04/16 01:56:14;;;;;;;4.20;2.30;;;;;;;;;;5044128;28;20042;-75
2022/04/16 01:58:41;;;;;;;5.20;2.30;;;;;;;;;;5044429;28;20476;-75
2022/04/16 02:01:08;;;;;;;4.55;2.05;;;;;;;;;;5044285;28;20060;-75
2022/04/16 02:03:37;;;;;;;3.55;2.03;;;;;;;;;;5044969;28;20061;-75
2022/04/16 02:06:05;;;;;;;4.72;2.17;;;;;;;;;;5030463;28;20096;-75
2022/04/16 02:08:33;;;;;;;4.93;2.20;;;;;;;;;;5048248;28;20159;-75
2022/04/16 02:10:59;;;;;;;4.22;2.13;;;;;;;;;;5047954;28;20117;-75
2022/04/16 02:13:29;;;;;;;4.50;2.20;;;;;;;;;;5047627;28;20095;-75
2022/04/16 02:15:58;;;;;;;5.15;2.25;;;;;;;;;;5048145;28;20041;-75
2022/04/16 02:18:24;;;;;;;5.32;2.35;;;;;;;;;;5048128;28;20113;-75
2022/04/16 02:20:51;;;;;;;4.03;2.10;;;;;;;;;;5047918;28;20141;-75
2022/04/16 02:23:20;;;;;;;4.13;2.10;;;;;;;;;;5047031;28;20072;-74
2022/04/16 02:25:47;;;;;;;4.50;2.15;;;;;;;;;;5047465;28;20042;-75
2022/04/16 02:28:14;;;;;;;5.93;2.17;;;;;;;;;;5048244;28;20058;-75
2022/04/16 02:30:43;;;;;;;5.95;2.20;;;;;;;;;;5048439;28;20104;-75
2022/04/16 02:33:10;;;;;;;;;;;;;;;;;;5047870;28;20060;-75
2022/04/16 02:35:38;;;;;;;;;;;;;;;;;;5047849;28;19964;-75
2022/04/16 02:38:06;;;;;;;5.40;2.00;;;;;;;;;;5048087;28;19940;-75
2022/04/16 02:40:33;;;;;;;4.72;2.30;;;;;;;;;;5048167;28;19929;-75
2022/04/16 02:43:02;;;;;;;;;;;;;;;;;;5048368;28;20532;-75
2022/04/16 02:48:15;;;;;;;5.20;2.20;;;;;;;;;;5048494;28;20110;-75
2022/04/16 02:50:41;;;;;;;;;;;;;;;;;;5047790;28;20121;-75
2022/04/16 02:53:08;;;;;;;3.47;2.00;;;;;;;;;;5047355;28;19921;-75
2022/04/16 02:55:35;;;;;;;4.68;2.15;;;;;;;;;;5047534;28;20049;-75
2022/04/16 02:58:03;;;;;;;4.07;2.17;;;;;;;;;;5047587;28;20053;-75
2022/04/16 03:00:29;;;;;;;3.72;1.90;;;;;;;;;;5048172;28;20049;-75
2022/04/16 03:02:56;;;;;;;4.28;2.25;;;;;;;;;;5047019;28;20149;-75
2022/04/16 03:05:24;;;;;;;4.82;2.20;;;;;;;;;;5046520;28;20133;-75
2022/04/16 03:07:51;;;;;;;;;;;;;;;;;;5047516;28;20046;-75
2022/04/16 03:10:17;;;;;;;4.25;2.05;;;;;;;;;;5047079;28;20386;-75
2022/04/16 03:12:43;;;;;;;;;;;;;;;;;;5047759;28;20068;-75
2022/04/16 03:17:55;;;;;;;;;;;;;;;;;;5048252;28;20087;-75
2022/04/16 03:20:21;;;;;;;;;;;;;;;;;;5047958;28;19925;-75
2022/04/16 03:22:49;;;;;;;4.28;2.10;;;;;;;;;;5046679;28;20041;-75
2022/04/16 03:25:16;;;;;;;3.45;1.88;;;;;;;;;;5047146;28;20303;-75
2022/04/16 03:27:44;;;;;;;4.90;2.05;;;;;;;;;;5047000;28;20057;-75
2022/04/16 03:30:11;;;;;;;3.70;1.90;;;;;;;;;;5046890;28;20563;-75
2022/04/16 03:35:12;;;;;;;4.57;2.20;;;;;;;;;;5383553;22;20117;-74
2022/04/16 03:37:39;;;;;;;4.07;1.90;;;;;;;;;;5065916;28;20052;-74
2022/04/16 03:40:08;;;;;;;3.15;1.75;;;;;;;;;;5066001;28;20075;-74
2022/04/16 03:42:34;;;;;;;4.05;2.00;;;;;;;;;;5065894;28;20132;-74
2022/04/16 03:45:01;;;;;;;3.25;1.73;;;;;;;;;;5064391;28;20079;-75
2022/04/16 03:47:28;;;;;;;4.70;2.10;;;;;;;;;;5064923;28;20056;-74
2022/04/16 03:49:54;;;;;;;4.22;1.90;;;;;;;;;;5065857;28;20049;-74
2022/04/16 03:52:21;;;;;;;3.35;1.70;;;;;;;;;;5065719;28;20072;-75
2022/04/16 04:00:17;;;;;;;2.95;1.70;;;;;;;;;;5066136;28;20059;-74
2022/04/16 04:02:44;;;;;;;5.35;1.98;;;;;;;;;;5065750;28;20056;-74
2022/04/16 04:05:11;;;;;;;3.60;1.90;;;;;;;;;;5065924;28;20055;-74
2022/04/16 04:07:38;;;;;;;4.22;2.00;;;;;;;;;;5065558;28;20112;-75
2022/04/16 04:10:05;;;;;;;4.10;1.80;;;;;;;;;;5065116;28;20056;-74
2022/04/16 04:12:33;;;;;;;3.42;1.77;;;;;;;;;;5064488;28;20053;-74
2022/04/16 04:14:59;;;;;;;;;;;;;;;;;;5063438;28;20131;-74
2022/04/16 04:17:26;;;;;;;;;;;;;;;;;;5066698;28;19928;-74
2022/04/16 04:19:52;;;;;;;4.90;2.00;;;;;;;;;;5065464;28;20048;-75
2022/04/16 04:22:20;;;;;;;4.60;1.80;;;;;;;;;;5065526;28;20117;-74
2022/04/16 04:24:46;;;;;;;;;;;;;;;;;;5056620;28;20080;-75
2022/04/16 04:27:13;;;;;;;4.05;1.70;;;;;;;;;;5045262;28;20384;-74
2022/04/16 04:29:39;;;;;;;;;;;;;;;;;;5066005;28;20056;-75
2022/04/16 04:32:05;;;;;;;;;;;;;;;;;;5068330;28;19925;-75
2022/04/16 04:34:33;;;;;;;3.58;1.83;;;;;;;;;;5067223;28;19952;-75
2022/04/16 04:37:00;;;;;;;4.30;1.90;;;;;;;;;;5067011;28;20160;-75
2022/04/16 04:39:26;;;;;;;;;;;;;;;;;;5067630;28;20105;-75
2022/04/16 04:41:52;;;;;;;;;;;;;;;;;;5068084;28;19924;-75
2022/04/16 04:44:18;;;;;;;;;;;;;;;;;;5067537;28;19925;-74
2022/04/16 04:46:45;;;;;;;5.25;1.90;;;;;;;;;;5067197;28;19977;-75
2022/04/16 04:49:12;;;;;;;;;;;;;;;;;;5066428;28;20045;-75
2022/04/16 04:51:38;;;;;;;;;;;;;;;;;;5067600;28;19935;-75
2022/04/16 04:54:07;;;;;;;6.07;1.92;;;;;;;;;;5067783;28;19976;-74
2022/04/16 04:56:34;;;;;;;6.55;1.95;;;;;;;;;;5066964;28;20048;-75
2022/04/16 04:59:00;;;;;;;;;;;;;;;;;;5067296;28;20048;-74
2022/04/16 05:01:27;;;;;;;;;;;;;;;;;;5066191;28;19984;-75
2022/04/16 05:03:53;;;;;;;;;;;;;;;;;;5067920;28;19927;-75
2022/04/16 05:06:22;;;;;;;7.68;2.10;;;;;;;;;;5067955;28;20374;-75
2022/04/16 05:14:17;;;;;;;;;;;;;;;;;;5040775;28;19921;-75
2022/04/16 05:16:44;;;;;;;;;;;;;;;;;;5062834;28;19964;-75
2022/04/16 05:19:12;;;;;;;;;;;;;;;;;;5027480;28;19925;-75
2022/04/16 05:21:38;;;;;;;;;;;;;;;;;;5061351;28;19929;-75
2022/04/16 05:30:06;;;;;;;;;;;;;;;;;;5038891;28;20053;-75
2022/04/16 05:32:34;;;;;;;;;;;;;;;;;;5044497;28;19928;-75
2022/04/16 05:38:09;;;;;;;;;;;;;;;;;;5060192;28;20368;-75
2022/04/16 05:40:38;;;;;;;;;;;;;;;;;;5059789;28;19925;-75
2022/04/16 05:43:34;;;;;;;7.28;2.50;;;;;;;;;;5060486;28;19932;-75
2022/04/16 05:46:03;;;;;;;;;;;;;;;;;;5060648;28;20045;-75
2022/04/16 05:57:44;;;;;;;;;;;;;;;;;;5062135;28;19920;-75
2022/04/16 06:00:13;;;;;;;;;;;;;;;;;;5061811;28;19929;-76
2022/04/16 06:02:50;;;;;;;9.30;2.15;;;;;;;;;;5044413;28;19983;-75
2022/04/16 06:05:24;;;;;;;6.97;2.47;;;;;;;;;;5060639;28;20049;-76
2022/04/16 06:10:42;;;;;;;13.07;2.40;;;;;;;;;;4988735;28;20080;-75
2022/04/16 06:15:52;;;;;;;;;;;;;;;;;;5060599;28;19935;-75
2022/04/16 06:35:27;;;;;;;9.45;2.10;;;;;;;;;;5820993;22;20188;-77
2022/04/16 06:37:53;;;;;;;9.60;2.00;;;;;;;;;;5015743;28;20060;-77
2022/04/16 06:40:20;;;;;;;8.27;2.00;;;;;;;;;;5013911;28;20058;-76
2022/04/16 07:03:36;;;;;;;10.55;1.83;;;;;;;;;;5032698;28;20045;-77
2022/04/16 07:06:05;;;;;;;10.50;2.10;;;;;;;;;;5031609;28;20082;-77
2022/04/16 07:08:33;;;;;;;10.05;1.92;;;;;;;;;;5023209;28;20060;-74
2022/04/16 07:10:59;;;;;;;7.18;1.95;;;;;;;;;;5016886;28;20053;-74
2022/04/16 07:13:25;;;;;;;9.25;2.13;;;;;;;;;;5017127;28;20056;-73
2022/04/16 07:15:52;;;;;;;9.43;1.90;;;;;;;;;;5016724;28;20052;-74
2022/04/16 07:18:18;;;;;;;9.13;1.80;;;;;;;;;;5016822;28;20046;-72
2022/04/16 07:20:46;;;;;;;9.00;1.95;;;;;;;;;;5018807;28;20050;-75
2022/04/16 07:23:12;;;;;;;9.82;2.00;;;;;;;;;;5016006;28;20138;-76
2022/04/16 07:25:38;;;;;;;8.10;1.83;;;;;;;;;;5016760;28;20050;-74
2022/04/16 07:28:05;;;;;;;12.40;1.80;;;;;;;;;;5016962;28;20049;-74
2022/04/16 07:30:31;;;;;;;8.63;2.10;;;;;;;;;;5016634;28;20497;-76
2022/04/16 07:32:58;;;;;;;9.85;2.17;;;;;;;;;;5016155;28;20058;-76
2022/04/16 07:35:26;;;;;;;10.55;1.88;;;;;;;;;;5015231;28;20152;-76
2022/04/16 07:37:56;;;;;;;6.30;1.70;;;;;;;;;;5015158;28;20054;-76
2022/04/16 07:40:23;;;;;;;7.95;1.90;;;;;;;;;;5015292;28;20054;-75
2022/04/16 07:42:49;;;;;;;9.40;1.50;;;;;;;;;;5015150;28;20061;-76
2022/04/16 07:45:16;;;;;;;11.18;2.30;;;;;;;;;;5014750;28;20042;-75
2022/04/16 07:47:42;;;;;;;7.10;2.00;;;;;;;;;;5017565;28;20057;-76
2022/04/16 07:50:09;;;;;;;10.15;2.10;;;;;;;;;;5015783;28;20513;-76
2022/04/16 07:52:35;;;;;;;7.90;1.85;;;;;;;;;;5015854;28;20061;-77
2022/04/16 07:55:03;;;;;;;5.82;1.60;;;;;;;;;;5015783;28;20053;-76
2022/04/16 07:57:30;;;;;;;8.70;1.77;;;;;;;;;;5015591;28;20054;-75
2022/04/16 07:59:56;;;;;;;6.95;1.60;;;;;;;;;;5015343;28;20088;-76
2022/04/16 08:02:23;;;;;;;6.43;1.50;;;;;;;;;;5015081;28;20046;-77
2022/04/16 08:04:49;;;;;;;6.43;1.70;;;;;;;;;;5015490;28;20081;-75
2022/04/16 08:07:15;;;;;;;5.97;1.67;;;;;;;;;;5015587;28;20046;-76
2022/04/16 08:09:42;;;;;;;4.60;1.60;;;;;;;;;;5015640;28;20052;-76
2022/04/16 08:12:10;;;;;;;4.05;1.60;;;;;;;;;;5015561;28;20050;-76
2022/04/16 08:14:36;;;;;;;3.70;1.48;;;;;;;;;;5015377;28;20056;-76
2022/04/16 08:17:02;;;;;;;4.28;1.40;;;;;;;;;;5015712;28;20058;-76
2022/04/16 08:19:29;;;;;;;5.35;1.60;;;;;;;;;;5015238;28;20046;-76
2022/04/16 08:21:56;;;;;;;5.10;1.50;;;;;;;;;;5015287;28;20050;-76
2022/04/16 08:24:40;;;;;;;4.68;1.40;;;;;;;;;;5015763;28;20046;-76
2022/04/16 08:27:07;;;;;;;7.53;1.50;;;;;;;;;;5014995;28;20053;-76
2022/04/16 08:29:35;;;;;;;8.57;1.50;;;;;;;;;;5016096;28;20050;-76
2022/04/16 08:32:02;;;;;;;6.38;1.60;;;;;;;;;;5014875;28;20046;-76
2022/04/16 08:34:28;;;;;;;3.60;1.50;;;;;;;;;;5013945;28;20056;-76
2022/04/16 08:36:55;;;;;;;4.32;1.40;;;;;;;;;;5014380;28;20050;-76
2022/04/16 08:39:21;;;;;;;2.72;1.27;;;;;;;;;;5014106;28;20054;-76
2022/04/16 08:41:48;;;;;;;7.15;1.30;;;;;;;;;;5014131;28;20050;-76
2022/04/16 08:44:19;;;;;;;7.70;1.40;;;;;;;;;;5013540;28;20501;-76
2022/04/16 08:46:47;;;;;;;6.32;1.25;;;;;;;;;;5014064;28;20108;-76
2022/04/16 08:49:13;;;;;;;;;;;;;;;;;;5014589;28;20050;-76
2022/04/16 08:51:39;;;;;;;3.33;1.30;;;;;;;;;;5013926;28;19921;-76
2022/04/16 08:54:06;;;;;;;2.58;1.17;;;;;;;;;;5013494;28;20420;-76
2022/04/16 08:56:33;;;;;;;4.53;1.40;;;;;;;;;;5013802;28;20408;-76
2022/04/16 08:58:59;;;;;;;3.95;1.02;;;;;;;;;;5013723;28;20060;-76
2022/04/16 09:01:25;;;;;;;2.50;1.27;;;;;;;;;;5013342;28;20387;-76
2022/04/16 09:03:58;;;;;;;3.40;1.20;;;;;;;;;;5013568;28;20057;-76
2022/04/16 09:06:44;;;;;;;1.60;1.02;;;;;;;;;;5014042;28;20042;-76
2022/04/16 09:09:11;;;;;;;3.67;1.20;;;;;;;;;;5013639;28;20568;-76
2022/04/16 09:11:38;;;;;;;2.47;0.90;;;;;;;;;;5013987;28;20054;-76
2022/04/16 09:14:04;;;;;;;3.38;1.15;;;;;;;;;;5022450;28;20049;-77
2022/04/16 09:16:31;;;;;;;2.63;1.30;;;;;;;;;;5030069;28;20050;-75
2022/04/16 09:18:59;;;;;;;2.10;1.10;;;;;;;;;;5013701;28;20045;-73
2022/04/16 09:21:26;;;;;;;2.90;1.33;;;;;;;;;;5013273;28;20054;-76
2022/04/16 09:23:53;;;;;;;4.20;1.00;;;;;;;;;;5013218;28;20416;-76
2022/04/16 09:26:26;;;;;;;3.47;1.20;;;;;;;;;;5013483;28;20198;-76
2022/04/16 09:28:53;;;;;;;2.22;1.10;;;;;;;;;;5013235;28;20050;-76
2022/04/16 09:31:20;;;;;;;5.07;1.33;;;;;;;;;;5013255;28;20050;-76
2022/04/16 09:55:20;;;;;;;3.45;1.30;;;;;;;;;;4979174;28;20038;-74
2022/04/16 09:57:47;;;;;;;2.72;1.25;;;;;;;;;;4980829;28;20089;-74
2022/04/16 10:00:14;;;;;;;2.28;1.10;;;;;;;;;;4999486;28;20050;-74
2022/04/16 10:02:41;;;;;;;2.42;1.30;;;;;;;;;;5009936;28;20394;-73
2022/04/16 10:05:09;;;;;;;2.88;1.20;;;;;;;;;;5011937;28;20050;-74
2022/04/16 10:07:37;;;;;;;3.88;1.27;;;;;;;;;;5011303;28;20050;-74
2022/04/16 10:10:11;;;;;;;3.25;1.40;;;;;;;;;;5012124;28;20056;-74
2022/04/16 10:15:23;;;;;;;3.08;1.23;;;;;;;;;;5002221;28;20184;-74
2022/04/16 10:17:51;;;;;;;2.65;1.20;;;;;;;;;;5011490;28;20045;-74
2022/04/16 10:20:18;;;;;;;2.88;1.52;;;;;;;;;;5011506;28;20056;-74
2022/04/16 10:22:53;;;;;;;3.38;1.48;;;;;;;;;;5011528;28;20052;-74
2022/04/16 10:25:27;;;;;;;2.90;1.40;;;;;;;;;;5006689;28;20498;-74
2022/04/16 10:28:00;;;;;;;3.20;1.48;;;;;;;;;;5013095;28;20041;-73
2022/04/16 10:30:35;;;;;;;3.75;1.50;;;;;;;;;;5016634;28;20046;-74
2022/04/16 10:33:03;;;;;;;3.63;1.30;;;;;;;;;;5015766;28;20060;-75
2022/04/16 10:35:30;;;;;;;4.05;1.48;;;;;;;;;;5016598;28;20050;-74
2022/04/16 10:37:56;;;;;;;4.22;1.50;;;;;;;;;;5017580;28;20105;-74
2022/04/16 10:40:23;;;;;;;4.55;1.40;;;;;;;;;;5016380;28;20049;-75
2022/04/16 10:42:50;;;;;;;4.55;1.30;;;;;;;;;;5016407;28;20076;-75
2022/04/16 10:45:18;;;;;;;2.03;1.20;;;;;;;;;;5016629;28;20050;-75
2022/04/16 10:47:44;;;;;;;;;;;;;;;;;;5017038;28;20062;-75
2022/04/16 10:50:15;;;;;;;5.57;1.80;;;;;;;;;;5016849;28;19922;-75
2022/04/16 10:52:41;;;;;;;;;;;;;;;;;;5016632;28;20148;-75
2022/04/16 10:55:08;;;;;;;;;;;;;;;;;;5016511;28;19928;-74
2022/04/16 10:57:34;;;;;;;;;;;;;;;;;;5016529;28;20392;-75
2022/04/16 11:00:00;;;;;;;;;;;;;;;;;;5016407;28;19957;-75
2022/04/16 11:02:30;;;;;;;3.90;1.73;;;;;;;;;;5016039;28;20369;-76
2022/04/16 11:04:57;;;;;;;4.00;1.88;;;;;;;;;;5016267;28;20049;-75
2022/04/16 11:07:26;;;;;;;3.10;1.60;;;;;;;;;;5021956;28;20046;-76
2022/04/16 11:12:37;;;;;;;3.75;1.42;;;;;;;;;;5022949;28;20061;-76
2022/04/16 11:15:08;;;;;;;5.20;1.60;;;;;;;;;;5019381;28;20046;-76
2022/04/16 11:17:35;;;;;;;5.70;1.38;;;;;;;;;;5022354;28;20042;-76
2022/04/16 11:20:03;;;;;;;2.88;1.40;;;;;;;;;;5026700;28;20129;-76
2022/04/16 11:22:29;;;;;;;4.35;1.40;;;;;;;;;;5024434;28;20109;-76
2022/04/16 11:24:56;;;;;;;;;;;;;;;;;;5025031;28;20110;-76
2022/04/16 11:35:54;;;;;;;3.22;1.40;;;;;;;;;;5025197;28;20068;-76
2022/04/16 11:38:24;;;;;;;3.05;1.58;;;;;;;;;;5026052;28;20056;-76
2022/04/16 11:40:52;;;;;;;2.60;1.60;;;;;;;;;;5026047;28;20490;-76
2022/04/16 11:43:19;;;;;;;2.65;1.50;;;;;;;;;;5025041;28;20132;-76
2022/04/16 11:45:46;;;;;;;;;;;;;;;;;;5025605;28;20064;-75
2022/04/16 11:48:14;;;;;;;;;;;;;;;;;;5025350;28;20404;-76
2022/04/16 11:50:40;;;;;;;;;;;;;;;;;;5026536;28;19921;-76
2022/04/16 11:53:07;;;;;;;;;;;;;;;;;;5009987;28;19953;-76
2022/04/16 11:55:34;;;;;;;;;;;;;;;;;;5006368;28;19972;-76
2022/04/16 11:58:02;;;;;;;4.90;1.65;;;;;;;;;;5006734;28;19926;-76
2022/04/16 12:00:28;;;;;;;3.58;1.60;;;;;;;;;;5008114;28;20422;-76
2022/04/16 12:02:54;;;;;;;;;;;;;;;;;;5025532;28;20492;-75
2022/04/16 12:05:20;;;;;;;;;;;;;;;;;;5025732;28;19934;-76
2022/04/16 12:07:48;;;;;;;5.60;1.58;;;;;;;;;;5019944;28;20012;-76
2022/04/16 12:10:15;;;;;;;5.85;1.50;;;;;;;;;;5017871;28;20053;-75
2022/04/16 12:12:41;;;;;;;5.65;1.50;;;;;;;;;;5013463;28;20060;-74
2022/04/16 12:15:09;;;;;;;7.35;1.73;;;;;;;;;;5013536;28;20048;-74
2022/04/16 12:17:39;;;;;;;7.18;1.65;;;;;;;;;;5012720;28;20057;-75
2022/04/16 12:20:06;;;;;;;5.65;1.50;;;;;;;;;;5012993;28;20054;-75
2022/04/16 12:22:33;;;;;;;5.70;1.45;;;;;;;;;;5012646;28;20052;-75
2022/04/16 12:25:07;;;;;;;6.00;1.42;;;;;;;;;;5012987;28;20137;-75
2022/04/16 12:27:33;;;;;;;;;;;;;;;;;;5013443;28;20120;-75
2022/04/16 12:30:00;;;;;;;3.10;1.40;;;;;;;;;;5012267;28;20373;-75
2022/04/16 12:32:27;;;;;;;6.05;1.40;;;;;;;;;;5012911;28;20500;-75
2022/04/16 12:34:54;;;;;;;3.50;1.40;;;;;;;;;;5012476;28;20424;-75
2022/04/16 12:37:21;;;;;;;4.70;1.33;;;;;;;;;;5012977;28;20046;-75
2022/04/16 12:39:48;;;;;;;4.35;1.40;;;;;;;;;;5012887;28;20057;-75
2022/04/16 12:42:14;;;;;;;4.72;1.50;;;;;;;;;;5012535;28;20056;-75
2022/04/16 12:44:41;;;;;;;4.82;1.27;;;;;;;;;;5010706;28;20341;-75
2022/04/16 12:47:07;;;;;;;2.47;1.20;;;;;;;;;;5012606;28;20516;-75
2022/04/16 12:49:35;;;;;;;4.00;1.15;;;;;;;;;;5011658;28;20046;-75
2022/04/16 12:52:02;;;;;;;4.82;1.33;;;;;;;;;;5012610;28;20078;-75
2022/04/16 12:54:28;;;;;;;2.80;1.20;;;;;;;;;;5011833;28;20054;-75
2022/04/16 12:56:54;;;;;;;3.55;1.30;;;;;;;;;;5012114;28;20050;-75
2022/04/16 12:59:21;;;;;;;;;;;;;;;;;;5012936;28;20077;-75
2022/04/16 13:01:47;;;;;;;;;;;;;;;;;;5012789;28;19929;-75
2022/04/16 13:04:13;;;;;;;;;;;;;;;;;;5012222;28;19925;-75
2022/04/16 13:06:39;;;;;;;;;;;;;;;;;;5013026;28;19921;-75
2022/04/16 13:09:05;;;;;;;;;;;;;;;;;;5012607;28;20381;-75
2022/04/16 13:11:31;;;;;;;;;;;;;;;;;;5012698;28;20004;-75
2022/04/16 13:13:59;;;;;;;2.88;1.40;;;;;;;;;;5011510;28;19932;-75
2022/04/16 13:16:26;;;;;;;;;;;;;;;;;;5012546;28;20046;-75
2022/04/16 13:18:52;;;;;;;3.63;1.48;;;;;;;;;;5012126;28;19926;-75
2022/04/16 13:21:18;;;;;;;2.97;1.40;;;;;;;;;;5012434;28;20054;-75
2022/04/16 13:23:45;;;;;;;2.47;1.30;;;;;;;;;;5011112;28;20128;-75
2022/04/16 13:26:11;;;;;;;1.98;1.08;;;;;;;;;;5012211;28;20060;-75
2022/04/16 13:28:37;;;;;;;3.20;1.20;;;;;;;;;;5012414;28;20052;-75
2022/04/16 13:31:05;;;;;;;2.45;1.30;;;;;;;;;;5012181;28;20057;-75
2022/04/16 13:33:32;;;;;;;3.55;1.20;;;;;;;;;;5011312;28;20045;-75
2022/04/16 13:35:58;;;;;;;2.42;1.30;;;;;;;;;;5011870;28;20052;-75
2022/04/16 13:38:24;;;;;;;2.17;1.30;;;;;;;;;;5011951;28;20049;-75
2022/04/16 13:43:34;;;;;;;3.45;1.20;;;;;;;;;;5011345;28;20108;-75
2022/04/16 13:46:00;;;;;;;2.10;1.30;;;;;;;;;;5011999;28;20533;-75
2022/04/16 13:48:28;;;;;;;1.35;1.10;;;;;;;;;;5012044;28;20081;-75
2022/04/16 13:50:55;;;;;;;2.67;1.30;;;;;;;;;;5011849;28;20053;-75
2022/04/16 13:53:23;;;;;;;2.45;1.35;;;;;;;;;;5011446;28;20057;-75
2022/04/16 13:55:49;;;;;;;2.70;1.15;;;;;;;;;;5011841;28;20050;-75
2022/04/16 13:58:16;;;;;;;2.50;1.10;;;;;;;;;;5011996;28;20050;-75
2022/04/16 14:00:42;;;;;;;2.95;1.30;;;;;;;;;;5014790;28;20572;-75
2022/04/16 14:03:08;;;;;;;3.25;1.30;;;;;;;;;;5015260;28;20421;-75
2022/04/16 14:05:45;;;;;;;3.60;1.15;;;;;;;;;;5015874;28;20050;-75
2022/04/16 14:08:13;;;;;;;3.00;1.40;;;;;;;;;;5016699;28;20472;-75
2022/04/16 14:10:40;;;;;;;2.33;1.10;;;;;;;;;;5015333;28;20054;-75
2022/04/16 14:13:06;;;;;;;2.17;1.30;;;;;;;;;;5015583;28;20050;-75
2022/04/16 14:15:32;;;;;;;2.15;1.30;;;;;;;;;;5016165;28;20104;-75
2022/04/16 14:17:59;;;;;;;3.28;1.50;;;;;;;;;;5015709;28;20041;-75
2022/04/16 14:20:25;;;;;;;3.45;1.20;;;;;;;;;;5015851;28;20046;-75
2022/04/16 14:22:53;;;;;;;3.35;1.30;;;;;;;;;;5014685;28;20049;-75
2022/04/16 14:25:19;;;;;;;2.83;1.30;;;;;;;;;;5015576;28;20421;-75
2022/04/16 14:27:46;;;;;;;2.83;1.40;;;;;;;;;;5015531;28;20038;-75
2022/04/16 14:30:13;;;;;;;2.95;1.25;;;;;;;;;;5015431;28;20081;-75
2022/04/16 14:32:41;;;;;;;2.33;1.20;;;;;;;;;;5014752;28;20412;-75
2022/04/16 14:35:07;;;;;;;2.42;1.20;;;;;;;;;;5015559;28;20108;-75
2022/04/16 14:37:34;;;;;;;2.17;1.20;;;;;;;;;;5015094;28;20533;-75
2022/04/16 14:40:02;;;;;;;2.97;1.30;;;;;;;;;;5015194;28;20061;-75
2022/04/16 14:42:29;;;;;;;3.38;1.30;;;;;;;;;;5015122;28;20053;-75
2022/04/16 14:44:56;;;;;;;1.33;1.00;;;;;;;;;;5015235;28;20053;-75
2022/04/16 14:47:23;;;;;;;1.40;1.10;;;;;;;;;;5015280;28;20088;-75
2022/04/16 14:49:49;;;;;;;1.90;1.35;;;;;;;;;;5014832;28;20512;-75
2022/04/16 14:52:15;;;;;;;2.03;1.30;;;;;;;;;;5014929;28;20054;-75
2022/04/16 14:54:42;;;;;;;2.15;1.20;;;;;;;;;;5014615;28;20054;-75
2022/04/16 14:57:09;;;;;;;2.00;1.20;;;;;;;;;;5015187;28;20056;-75
2022/04/16 14:59:36;;;;;;;2.22;1.27;;;;;;;;;;5015078;28;20101;-75
2022/04/16 15:02:02;;;;;;;2.90;1.30;;;;;;;;;;5014845;28;20149;-75
2022/04/16 15:04:29;;;;;;;1.52;1.30;;;;;;;;;;5014712;28;20050;-75
2022/04/16 15:06:55;;;;;;;3.00;1.35;;;;;;;;;;5015147;28;20129;-75
2022/04/16 15:09:21;;;;;;;2.25;1.20;;;;;;;;;;5014594;28;20048;-75
2022/04/16 15:11:48;;;;;;;1.77;1.10;;;;;;;;;;5013200;28;20054;-75
2022/04/16 15:14:16;;;;;;;2.05;1.40;;;;;;;;;;5014463;28;20053;-75
2022/04/16 15:16:42;;;;;;;2.42;1.30;;;;;;;;;;5014977;28;20053;-75
2022/04/16 15:19:09;;;;;;;1.83;1.23;;;;;;;;;;5014409;28;20049;-75
2022/04/16 15:21:35;;;;;;;1.35;1.10;;;;;;;;;;5015011;28;20417;-75
2022/04/16 15:24:01;;;;;;;1.98;1.25;;;;;;;;;;5014544;28;20061;-75
2022/04/16 15:26:28;;;;;;;2.08;1.40;;;;;;;;;;5014279;28;20054;-75
2022/04/16 15:28:54;;;;;;;2.45;1.30;;;;;;;;;;5014750;28;20050;-75
2022/04/16 15:31:29;;;;;;;2.83;1.40;;;;;;;;;;5014511;28;20072;-75
2022/04/16 15:34:00;;;;;;;3.13;1.50;;;;;;;;;;5013767;28;20136;-75
2022/04/16 15:36:27;;;;;;;2.00;1.30;;;;;;;;;;5014689;28;20100;-75
2022/04/16 15:38:53;;;;;;;2.10;1.40;;;;;;;;;;5014225;28;20073;-75
2022/04/16 15:41:20;;;;;;;2.42;1.30;;;;;;;;;;5014112;28;20421;-75
2022/04/16 15:43:46;;;;;;;2.40;1.25;;;;;;;;;;5013633;28;20056;-75
2022/04/16 15:46:12;;;;;;;2.28;1.40;;;;;;;;;;5016967;28;20041;-73
2022/04/16 15:48:40;;;;;;;2.95;1.10;;;;;;;;;;5016425;28;20354;-74
2022/04/16 15:51:07;;;;;;;2.75;1.40;;;;;;;;;;5010679;28;20050;-74
2022/04/16 15:53:34;;;;;;;6.47;1.73;;;;;;;;;;5013745;28;20112;-74
2022/04/16 15:56:00;;;;;;;3.53;1.60;;;;;;;;;;4998502;28;20057;-76
2022/04/16 15:58:27;;;;;;;4.15;1.40;;;;;;;;;;5012951;28;20073;-76
2022/04/16 16:00:53;;;;;;;3.88;1.40;;;;;;;;;;5012762;28;20046;-75
2022/04/16 16:03:19;;;;;;;3.10;1.60;;;;;;;;;;5012864;28;20165;-76
2022/04/16 16:05:52;;;;;;;8.40;1.60;;;;;;;;;;5014508;28;20065;-76
2022/04/16 16:08:18;;;;;;;5.22;1.50;;;;;;;;;;5013875;28;20133;-75
2022/04/16 16:10:45;;;;;;;6.38;1.60;;;;;;;;;;5014484;28;20108;-75
2022/04/16 16:13:11;;;;;;;5.75;1.42;;;;;;;;;;5013906;28;20049;-74
2022/04/16 16:15:38;;;;;;;6.03;1.60;;;;;;;;;;5003390;28;20057;-76
2022/04/16 16:18:04;;;;;;;6.70;1.92;;;;;;;;;;4998388;28;20077;-75
2022/04/16 16:20:31;;;;;;;5.25;1.60;;;;;;;;;;5014795;28;20041;-74
2022/04/16 16:22:59;;;;;;;8.68;1.63;;;;;;;;;;5014452;28;20056;-74
2022/04/16 16:25:26;;;;;;;;;;;;;;;;;;5014615;28;20050;-75
2022/04/16 16:27:52;;;;;;;5.13;1.38;;;;;;;;;;5014208;28;20435;-74
2022/04/16 16:30:19;;;;;;;3.20;1.50;;;;;;;;;;5013512;28;20405;-75
2022/04/16 16:32:45;;;;;;;6.53;1.48;;;;;;;;;;5013180;28;20572;-75
2022/04/16 16:35:13;;;;;;;4.90;1.50;;;;;;;;;;5013758;28;20052;-75
2022/04/16 16:37:40;;;;;;;3.83;1.70;;;;;;;;;;5013883;28;20049;-75
2022/04/16 16:40:08;;;;;;;6.07;1.70;;;;;;;;;;5013624;28;20049;-74
2022/04/16 16:42:35;;;;;;;6.43;1.60;;;;;;;;;;5013465;28;20050;-75
2022/04/16 16:45:01;;;;;;;7.68;1.90;;;;;;;;;;5013632;28;20549;-75
2022/04/16 16:47:29;;;;;;;8.20;2.00;;;;;;;;;;5013424;28;20134;-74
2022/04/16 16:49:55;;;;;;;8.80;1.90;;;;;;;;;;5013940;28;20111;-75
2022/04/16 16:52:21;;;;;;;9.45;2.00;;;;;;;;;;5026689;28;20052;-75
2022/04/16 16:54:48;;;;;;;6.60;2.03;;;;;;;;;;5026828;28;20489;-74
2022/04/16 16:57:16;;;;;;;7.43;1.90;;;;;;;;;;5030091;28;20056;-75
2022/04/16 16:59:42;;;;;;;7.07;2.00;;;;;;;;;;5019702;28;20045;-76